MMSD/SJD METAR and TAF weather

Enter ICAO airport designator
Station Type Date Time Source
MMSD METAR 2021/08/04 19:44 UTC NOAA

MMSD 041944Z 26007KT 7SM -TSRA BKN025CB 25/22 A2990 RMK 8/900 LWR VSBY N OCN LTGIC CI


Station Type Date Time Source
MMSD Decoded METAR 2021/08/04 19:44 UTC NOAA

San Jose Del Cabo , Mexico (MMSD) 23-09N 109-42W
Aug 04, 2021 - 03:44 PM EDT / 2021.08.04 1944 UTC
Wind: from the W (260 degrees) at 8 MPH (7 KT):0
Visibility: 7 mile(s):0
Sky conditions: mostly cloudy
Weather: light rain with thunder; Cumulonimbus clouds, lightning observed
Temperature: 77 F (25 C)
Dew Point: 71 F (22 C)
Relative Humidity: 83%
Pressure (altimeter): 29.9 in. Hg (1012 hPa)
ob: MMSD 041944Z 26007KT 7SM -TSRA BKN025CB 25/22 A2990 RMK 8/900 LWR VSBY N OCN LTGIC CI
cycle: 19

Station Type Date Time Source
MMSD TAF 2021/08/04 20:41 UTC NOAA

TAF
AMD MMSD 041934Z 0420/0518 31013KT P6SM OVC020CB
TEMPO 0420/0424 4SM TSRA
FM050000 00000KT P6SM SCT030 BKN120 PROB40 0512/0516 5SM RA BKN030

Example: see airport list